This is the latest recevied weather packets stored in our database for station/object VA3VWX-13. If no packets are shown the sender has not sent any weather packets the latest 1 day(s).
| Time | Temp. | Humidity | Pressure | Rain* | Wind** | Luminosity | Snow |
|---|---|---|---|---|---|---|---|
| 1778114917 | 7.78° C | 56% | 1012.9 hPa | 0 mm | - | - | - |
| 1778114615 | 8.33° C | 59% | 1012.9 hPa | 0 mm | - | - | - |
| 1778114322 | 7.78° C | 59% | 1012.8 hPa | 0 mm | - | - | - |
| 1778114008 | 7.78° C | 65% | 1012.8 hPa | 0 mm | - | - | - |
| 1778113706 | 7.78° C | 69% | 1012.8 hPa | 0 mm | - | - | - |
| 1778113411 | 7.78° C | 71% | 1012.8 hPa | 0 mm | - | - | - |
| 1778113120 | 7.78° C | 75% | 1012.7 hPa | 0 mm | - | - | - |
| 1778112824 | 7.78° C | 72% | 1012.7 hPa | 0 mm | - | - | - |
| 1778112503 | 7.78° C | 73% | 1012.6 hPa | 0 mm | - | - | - |
| 1778111316 | 7.22° C | 72% | 1012.6 hPa | 0 mm | - | - | - |
| 1778111023 | 7.22° C | 72% | 1012.5 hPa | 0 mm | - | - | - |
| 1778110409 | 7.22° C | 72% | 1012.4 hPa | 0 mm | - | - | - |
| 1778108624 | 8.33° C | 67% | 1012.2 hPa | 0 mm | - | - | - |
| 1778108305 | 8.33° C | 68% | 1012.1 hPa | 0 mm | - | - | - |
| 1778106513 | 11.11° C | 56% | 1011.9 hPa | 0 mm | - | - | - |
| 1778104709 | 10.56° C | 55% | 1011.5 hPa | 0 mm | - | - | - |
| 1778104124 | 10.56° C | 56% | 1011.4 hPa | 0 mm | - | - | - |
| 1778102319 | 8.89° C | 60% | 1011.2 hPa | 0 mm | - | - | - |
| 1778101703 | 8.33° C | 64% | 1011 hPa | 0 mm | - | - | - |
| 1778100807 | 8.33° C | 72% | 1010.9 hPa | 0 mm | - | - | - |
| 1778098422 | 7.22° C | 74% | 1011.1 hPa | 0 mm | - | - | - |
| 1778098129 | 7.22° C | 76% | 1011.2 hPa | 0 mm | - | - | - |
| 1778096619 | 6.67° C | 80% | 1011.3 hPa | 0 mm | - | - | - |
| 1778096306 | 6.67° C | 81% | 1011.3 hPa | 0 mm | - | - | - |
| 1778095713 | 6.11° C | 82% | 1011.4 hPa | 0 mm | - | - | - |
* Rain latest hour (hover to see other rain measurements)
** Current wind speed in m/s (hover to see current wind gust speed)